Terminal Aerodrome Forecast
Issued by NWS Spokane, WA

Home | Current Version | Previous Version | Text Only | Print | Product List | Glossary On
Versions: 1 2 3 4 5 6 7 8 9 10 11 12 13 14 15 16 17 18 19 20 21 22 23 24 25 26 27 28 29 30 31 32 33 34 35 36 37 38 39 40 41 42 43 44 45 46 47
000
FTUS46 KOTX 260141 CCA
TAFGEG
TAF COR
KGEG 260141Z 2602/2624 02005KT 5SM -RA BR BKN005 OVC015
     FM260400 04004KT 5SM -RA BR OVC005
     FM260600 VRB03KT 3SM -RA BR BKN005 OVC012
     FM261200 21012KT 1SM -RA BR BKN003 OVC010
     FM261600 20007KT 1/2SM FG OVC004=

USA.gov is the U.S. government's official web portal to all federal, state and local government web resources and services.